sensor_id;sensor_type;location;lat;lon;timestamp;temperature;humidity
10300;DHT22;5195;48.562;9.192;2023-02-21T00:00:30;10.70;38.30
10300;DHT22;5195;48.562;9.192;2023-02-21T00:03:15;10.80;39.00
10300;DHT22;5195;48.562;9.192;2023-02-21T00:06:01;10.50;39.00
10300;DHT22;5195;48.562;9.192;2023-02-21T00:08:46;10.50;39.30
10300;DHT22;5195;48.562;9.192;2023-02-21T00:11:32;10.60;38.80
10300;DHT22;5195;48.562;9.192;2023-02-21T00:14:17;10.40;38.90
10300;DHT22;5195;48.562;9.192;2023-02-21T00:17:03;9.90;40.40
10300;DHT22;5195;48.562;9.192;2023-02-21T00:19:49;9.30;41.50
10300;DHT22;5195;48.562;9.192;2023-02-21T00:22:34;9.30;41.50
10300;DHT22;5195;48.562;9.192;2023-02-21T00:25:20;9.50;42.30
10300;DHT22;5195;48.562;9.192;2023-02-21T00:28:05;9.90;41.50
10300;DHT22;5195;48.562;9.192;2023-02-21T00:30:50;10.20;39.10
10300;DHT22;5195;48.562;9.192;2023-02-21T00:33:36;10.40;38.60
10300;DHT22;5195;48.562;9.192;2023-02-21T00:36:21;10.50;38.80
10300;DHT22;5195;48.562;9.192;2023-02-21T00:39:07;10.60;38.70
10300;DHT22;5195;48.562;9.192;2023-02-21T00:41:52;10.20;38.90
10300;DHT22;5195;48.562;9.192;2023-02-21T00:44:38;9.70;40.50
10300;DHT22;5195;48.562;9.192;2023-02-21T00:47:24;9.50;40.90
10300;DHT22;5195;48.562;9.192;2023-02-21T00:50:09;9.50;40.90
10300;DHT22;5195;48.562;9.192;2023-02-21T00:52:55;9.60;41.20
10300;DHT22;5195;48.562;9.192;2023-02-21T00:55:40;9.40;41.30
10300;DHT22;5195;48.562;9.192;2023-02-21T00:58:26;9.10;41.70
10300;DHT22;5195;48.562;9.192;2023-02-21T01:01:11;8.80;42.20
10300;DHT22;5195;48.562;9.192;2023-02-21T01:03:57;8.60;43.30
10300;DHT22;5195;48.562;9.192;2023-02-21T01:06:42;8.40;43.10
10300;DHT22;5195;48.562;9.192;2023-02-21T01:09:28;8.20;43.70
10300;DHT22;5195;48.562;9.192;2023-02-21T01:12:14;8.10;43.30
10300;DHT22;5195;48.562;9.192;2023-02-21T01:14:59;8.50;43.50
10300;DHT22;5195;48.562;9.192;2023-02-21T01:17:45;8.50;43.00
10300;DHT22;5195;48.562;9.192;2023-02-21T01:20:30;8.30;43.20
10300;DHT22;5195;48.562;9.192;2023-02-21T01:23:16;8.10;43.20
10300;DHT22;5195;48.562;9.192;2023-02-21T01:26:01;8.00;43.60
10300;DHT22;5195;48.562;9.192;2023-02-21T01:28:47;7.90;43.80
10300;DHT22;5195;48.562;9.192;2023-02-21T01:31:32;7.80;44.00
10300;DHT22;5195;48.562;9.192;2023-02-21T01:34:18;7.70;44.20
10300;DHT22;5195;48.562;9.192;2023-02-21T01:37:03;7.60;44.40
10300;DHT22;5195;48.562;9.192;2023-02-21T01:39:48;7.60;44.70
10300;DHT22;5195;48.562;9.192;2023-02-21T01:42:34;7.50;44.70
10300;DHT22;5195;48.562;9.192;2023-02-21T01:48:09;8.40;44.30
10300;DHT22;5195;48.562;9.192;2023-02-21T01:50:53;8.40;43.90
10300;DHT22;5195;48.562;9.192;2023-02-21T01:53:39;8.10;44.10
10300;DHT22;5195;48.562;9.192;2023-02-21T01:56:24;8.30;44.60
10300;DHT22;5195;48.562;9.192;2023-02-21T01:59:09;8.70;43.60
10300;DHT22;5195;48.562;9.192;2023-02-21T02:02:08;8.70;42.90
10300;DHT22;5195;48.562;9.192;2023-02-21T02:04:48;8.70;42.90
10300;DHT22;5195;48.562;9.192;2023-02-21T02:07:33;8.30;43.50
10300;DHT22;5195;48.562;9.192;2023-02-21T02:10:20;7.80;44.50
10300;DHT22;5195;48.562;9.192;2023-02-21T02:13:16;7.80;44.50
10300;DHT22;5195;48.562;9.192;2023-02-21T02:40:32;7.40;46.10
10300;DHT22;5195;48.562;9.192;2023-02-21T02:43:30;7.50;46.70
10300;DHT22;5195;48.562;9.192;2023-02-21T02:45:57;7.90;44.80
10300;DHT22;5195;48.562;9.192;2023-02-21T02:48:22;7.70;44.70
10300;DHT22;5195;48.562;9.192;2023-02-21T02:50:47;7.10;45.70
10300;DHT22;5195;48.562;9.192;2023-02-21T02:53:14;7.10;45.70
10300;DHT22;5195;48.562;9.192;2023-02-21T02:55:42;7.30;45.80
10300;DHT22;5195;48.562;9.192;2023-02-21T02:58:03;7.30;45.80
10300;DHT22;5195;48.562;9.192;2023-02-21T03:00:29;7.40;45.80
10300;DHT22;5195;48.562;9.192;2023-02-21T03:09:14;7.70;45.00
10300;DHT22;5195;48.562;9.192;2023-02-21T03:11:49;7.70;45.00
10300;DHT22;5195;48.562;9.192;2023-02-21T03:14:14;7.50;45.00
10300;DHT22;5195;48.562;9.192;2023-02-21T03:16:53;7.20;45.70
10300;DHT22;5195;48.562;9.192;2023-02-21T03:19:32;7.30;45.70
10300;DHT22;5195;48.562;9.192;2023-02-21T03:21:57;7.20;45.70
10300;DHT22;5195;48.562;9.192;2023-02-21T03:24:22;6.80;46.60
10300;DHT22;5195;48.562;9.192;2023-02-21T03:26:49;6.80;46.60
10300;DHT22;5195;48.562;9.192;2023-02-21T03:29:14;6.90;47.30
10300;DHT22;5195;48.562;9.192;2023-02-21T03:31:42;6.80;47.20
10300;DHT22;5195;48.562;9.192;2023-02-21T03:34:05;7.00;46.90
10300;DHT22;5195;48.562;9.192;2023-02-21T03:36:32;7.00;46.50
10300;DHT22;5195;48.562;9.192;2023-02-21T03:38:58;7.40;45.90
10300;DHT22;5195;48.562;9.192;2023-02-21T03:41:23;7.40;45.90
10300;DHT22;5195;48.562;9.192;2023-02-21T03:43:49;7.40;45.70
10300;DHT22;5195;48.562;9.192;2023-02-21T03:46:14;7.20;46.00
10300;DHT22;5195;48.562;9.192;2023-02-21T03:48:40;7.30;46.60
10300;DHT22;5195;48.562;9.192;2023-02-21T03:51:06;7.60;46.00
10300;DHT22;5195;48.562;9.192;2023-02-21T03:53:31;7.80;45.00
10300;DHT22;5195;48.562;9.192;2023-02-21T03:55:57;7.70;45.00
10300;DHT22;5195;48.562;9.192;2023-02-21T03:58:23;7.70;44.60
10300;DHT22;5195;48.562;9.192;2023-02-21T04:00:51;7.90;44.10
10300;DHT22;5195;48.562;9.192;2023-02-21T04:03:17;7.80;44.80
10300;DHT22;5195;48.562;9.192;2023-02-21T04:05:42;7.70;44.70
10300;DHT22;5195;48.562;9.192;2023-02-21T04:08:08;7.60;44.90
10300;DHT22;5195;48.562;9.192;2023-02-21T04:10:33;7.70;44.80
10300;DHT22;5195;48.562;9.192;2023-02-21T04:12:59;7.50;44.80
10300;DHT22;5195;48.562;9.192;2023-02-21T04:15:25;7.70;44.50
10300;DHT22;5195;48.562;9.192;2023-02-21T04:17:51;7.70;44.60
10300;DHT22;5195;48.562;9.192;2023-02-21T04:20:17;7.60;44.10
10300;DHT22;5195;48.562;9.192;2023-02-21T04:22:43;7.60;44.10
10300;DHT22;5195;48.562;9.192;2023-02-21T04:25:09;7.20;44.70
10300;DHT22;5195;48.562;9.192;2023-02-21T04:27:36;6.60;45.80
10300;DHT22;5195;48.562;9.192;2023-02-21T04:30:01;6.60;45.80
10300;DHT22;5195;48.562;9.192;2023-02-21T04:32:27;6.40;46.20
10300;DHT22;5195;48.562;9.192;2023-02-21T04:34:53;6.10;46.90
10300;DHT22;5195;48.562;9.192;2023-02-21T04:37:19;6.10;46.80
10300;DHT22;5195;48.562;9.192;2023-02-21T04:39:44;6.00;47.10
10300;DHT22;5195;48.562;9.192;2023-02-21T04:42:11;5.80;47.50
10300;DHT22;5195;48.562;9.192;2023-02-21T04:44:37;5.80;47.50
10300;DHT22;5195;48.562;9.192;2023-02-21T04:47:02;5.70;47.80
10300;DHT22;5195;48.562;9.192;2023-02-21T04:49:27;5.70;48.00
10300;DHT22;5195;48.562;9.192;2023-02-21T04:51:53;5.90;47.90
10300;DHT22;5195;48.562;9.192;2023-02-21T04:54:18;6.40;47.00
10300;DHT22;5195;48.562;9.192;2023-02-21T04:56:44;6.80;46.40
10300;DHT22;5195;48.562;9.192;2023-02-21T04:59:10;7.00;46.70
10300;DHT22;5195;48.562;9.192;2023-02-21T05:01:35;7.20;46.20
10300;DHT22;5195;48.562;9.192;2023-02-21T05:04:01;7.40;46.00
10300;DHT22;5195;48.562;9.192;2023-02-21T05:06:28;6.80;46.40
10300;DHT22;5195;48.562;9.192;2023-02-21T05:08:53;6.80;46.40
10300;DHT22;5195;48.562;9.192;2023-02-21T05:11:19;6.50;46.90
10300;DHT22;5195;48.562;9.192;2023-02-21T05:13:44;6.60;46.80
10300;DHT22;5195;48.562;9.192;2023-02-21T05:16:10;6.50;46.80
10300;DHT22;5195;48.562;9.192;2023-02-21T05:18:35;6.60;46.70
10300;DHT22;5195;48.562;9.192;2023-02-21T05:21:01;6.50;46.80
10300;DHT22;5195;48.562;9.192;2023-02-21T05:23:26;6.50;47.00
10300;DHT22;5195;48.562;9.192;2023-02-21T05:26:02;6.80;46.40
10300;DHT22;5195;48.562;9.192;2023-02-21T05:28:24;7.00;45.90
10300;DHT22;5195;48.562;9.192;2023-02-21T05:30:50;6.50;46.50
10300;DHT22;5195;48.562;9.192;2023-02-21T05:33:15;6.50;46.50
10300;DHT22;5195;48.562;9.192;2023-02-21T05:35:41;6.20;47.10
10300;DHT22;5195;48.562;9.192;2023-02-21T05:38:06;6.00;47.60
10300;DHT22;5195;48.562;9.192;2023-02-21T05:40:32;5.80;48.00
10300;DHT22;5195;48.562;9.192;2023-02-21T05:42:59;5.70;48.20
10300;DHT22;5195;48.562;9.192;2023-02-21T05:45:25;5.90;47.40
10300;DHT22;5195;48.562;9.192;2023-02-21T05:47:50;6.30;46.60
10300;DHT22;5195;48.562;9.192;2023-02-21T05:50:16;6.50;46.00
10300;DHT22;5195;48.562;9.192;2023-02-21T05:52:42;6.50;46.00
10300;DHT22;5195;48.562;9.192;2023-02-21T05:55:10;6.50;46.00
10300;DHT22;5195;48.562;9.192;2023-02-21T05:57:38;6.20;46.70
10300;DHT22;5195;48.562;9.192;2023-02-21T06:00:04;5.90;47.20
10300;DHT22;5195;48.562;9.192;2023-02-21T06:02:30;5.70;47.70
10300;DHT22;5195;48.562;9.192;2023-02-21T06:04:55;5.50;48.00
10300;DHT22;5195;48.562;9.192;2023-02-21T06:07:21;5.40;48.30
10300;DHT22;5195;48.562;9.192;2023-02-21T06:09:46;5.60;48.10
10300;DHT22;5195;48.562;9.192;2023-02-21T06:12:13;5.50;48.20
10300;DHT22;5195;48.562;9.192;2023-02-21T06:14:38;5.50;48.10
10300;DHT22;5195;48.562;9.192;2023-02-21T06:17:04;5.70;48.00
10300;DHT22;5195;48.562;9.192;2023-02-21T06:19:29;6.10;47.00
10300;DHT22;5195;48.562;9.192;2023-02-21T06:21:55;6.00;46.90
10300;DHT22;5195;48.562;9.192;2023-02-21T06:24:21;6.10;46.60
10300;DHT22;5195;48.562;9.192;2023-02-21T06:26:47;5.80;47.30
10300;DHT22;5195;48.562;9.192;2023-02-21T06:29:12;5.80;47.20
10300;DHT22;5195;48.562;9.192;2023-02-21T06:31:38;5.60;47.60
10300;DHT22;5195;48.562;9.192;2023-02-21T06:34:04;5.80;47.30
10300;DHT22;5195;48.562;9.192;2023-02-21T06:36:29;5.80;47.20
10300;DHT22;5195;48.562;9.192;2023-02-21T06:38:56;5.90;46.90
10300;DHT22;5195;48.562;9.192;2023-02-21T06:41:23;6.30;46.40
10300;DHT22;5195;48.562;9.192;2023-02-21T06:43:54;6.30;46.70
10300;DHT22;5195;48.562;9.192;2023-02-21T06:46:20;6.30;46.70
10300;DHT22;5195;48.562;9.192;2023-02-21T06:48:45;6.50;46.50
10300;DHT22;5195;48.562;9.192;2023-02-21T06:51:11;6.50;46.60
10300;DHT22;5195;48.562;9.192;2023-02-21T06:53:37;6.40;47.10
10300;DHT22;5195;48.562;9.192;2023-02-21T06:56:03;6.40;47.00
10300;DHT22;5195;48.562;9.192;2023-02-21T06:58:28;6.30;47.30
10300;DHT22;5195;48.562;9.192;2023-02-21T07:00:54;6.20;47.50
10300;DHT22;5195;48.562;9.192;2023-02-21T07:03:20;6.40;46.40
10300;DHT22;5195;48.562;9.192;2023-02-21T07:05:45;6.50;46.30
10300;DHT22;5195;48.562;9.192;2023-02-21T07:08:11;6.70;45.80
10300;DHT22;5195;48.562;9.192;2023-02-21T07:10:36;6.70;45.90
10300;DHT22;5195;48.562;9.192;2023-02-21T07:13:03;6.60;46.00
10300;DHT22;5195;48.562;9.192;2023-02-21T07:15:28;6.60;46.00
10300;DHT22;5195;48.562;9.192;2023-02-21T07:17:54;6.60;46.20
10300;DHT22;5195;48.562;9.192;2023-02-21T07:20:19;6.60;46.80
10300;DHT22;5195;48.562;9.192;2023-02-21T07:22:46;6.90;45.90
10300;DHT22;5195;48.562;9.192;2023-02-21T07:25:15;6.80;46.40
10300;DHT22;5195;48.562;9.192;2023-02-21T07:27:40;7.00;46.30
10300;DHT22;5195;48.562;9.192;2023-02-21T07:30:07;7.00;46.80
10300;DHT22;5195;48.562;9.192;2023-02-21T07:32:33;7.00;47.90
10300;DHT22;5195;48.562;9.192;2023-02-21T07:35:01;7.80;44.80
10300;DHT22;5195;48.562;9.192;2023-02-21T07:37:27;7.90;45.00
10300;DHT22;5195;48.562;9.192;2023-02-21T07:39:53;7.90;45.00
10300;DHT22;5195;48.562;9.192;2023-02-21T07:42:18;7.80;45.50
10300;DHT22;5195;48.562;9.192;2023-02-21T07:44:44;8.10;44.80
10300;DHT22;5195;48.562;9.192;2023-02-21T07:47:10;8.50;44.00
10300;DHT22;5195;48.562;9.192;2023-02-21T07:49:37;8.50;43.90
10300;DHT22;5195;48.562;9.192;2023-02-21T07:52:02;9.30;42.30
10300;DHT22;5195;48.562;9.192;2023-02-21T07:54:28;9.30;42.30
10300;DHT22;5195;48.562;9.192;2023-02-21T07:56:53;9.30;42.70
10300;DHT22;5195;48.562;9.192;2023-02-21T07:59:19;9.30;42.40
10300;DHT22;5195;48.562;9.192;2023-02-21T08:01:45;9.30;42.40
10300;DHT22;5195;48.562;9.192;2023-02-21T08:04:11;9.70;41.60
10300;DHT22;5195;48.562;9.192;2023-02-21T08:06:36;10.10;40.20
10300;DHT22;5195;48.562;9.192;2023-02-21T08:09:02;10.40;39.70
10300;DHT22;5195;48.562;9.192;2023-02-21T08:11:27;10.30;40.10
10300;DHT22;5195;48.562;9.192;2023-02-21T08:13:54;10.20;40.80
10300;DHT22;5195;48.562;9.192;2023-02-21T08:16:20;10.30;40.00
10300;DHT22;5195;48.562;9.192;2023-02-21T08:18:46;10.40;40.40
10300;DHT22;5195;48.562;9.192;2023-02-21T08:21:11;10.30;40.80
10300;DHT22;5195;48.562;9.192;2023-02-21T08:23:37;10.10;41.40
10300;DHT22;5195;48.562;9.192;2023-02-21T08:26:03;10.20;41.50
10300;DHT22;5195;48.562;9.192;2023-02-21T08:28:28;10.10;41.60
10300;DHT22;5195;48.562;9.192;2023-02-21T08:30:54;10.40;40.20
10300;DHT22;5195;48.562;9.192;2023-02-21T08:33:20;10.60;40.80
10300;DHT22;5195;48.562;9.192;2023-02-21T08:35:46;10.60;40.80
10300;DHT22;5195;48.562;9.192;2023-02-21T08:38:11;10.60;41.10
10300;DHT22;5195;48.562;9.192;2023-02-21T08:40:37;10.70;41.50
10300;DHT22;5195;48.562;9.192;2023-02-21T08:43:03;11.00;40.00
10300;DHT22;5195;48.562;9.192;2023-02-21T08:45:28;11.50;39.10
10300;DHT22;5195;48.562;9.192;2023-02-21T08:47:54;11.90;38.30
10300;DHT22;5195;48.562;9.192;2023-02-21T08:50:20;12.30;38.10
10300;DHT22;5195;48.562;9.192;2023-02-21T08:52:45;12.50;36.80
10300;DHT22;5195;48.562;9.192;2023-02-21T08:55:11;12.90;36.60
10300;DHT22;5195;48.562;9.192;2023-02-21T08:57:37;12.90;36.50
10300;DHT22;5195;48.562;9.192;2023-02-21T09:00:04;13.10;36.00
10300;DHT22;5195;48.562;9.192;2023-02-21T09:02:33;13.30;36.40
10300;DHT22;5195;48.562;9.192;2023-02-21T09:04:58;13.30;37.10
10300;DHT22;5195;48.562;9.192;2023-02-21T09:07:24;13.10;37.70
10300;DHT22;5195;48.562;9.192;2023-02-21T09:09:50;13.30;37.30
10300;DHT22;5195;48.562;9.192;2023-02-21T09:12:16;13.30;37.20
10300;DHT22;5195;48.562;9.192;2023-02-21T09:14:41;13.20;37.80
10300;DHT22;5195;48.562;9.192;2023-02-21T09:17:08;13.10;38.10
10300;DHT22;5195;48.562;9.192;2023-02-21T09:19:32;13.30;36.90
10300;DHT22;5195;48.562;9.192;2023-02-21T09:21:58;13.70;36.70
10300;DHT22;5195;48.562;9.192;2023-02-21T09:24:24;13.80;37.10
10300;DHT22;5195;48.562;9.192;2023-02-21T09:26:53;14.00;36.30
10300;DHT22;5195;48.562;9.192;2023-02-21T09:29:25;14.10;36.80
10300;DHT22;5195;48.562;9.192;2023-02-21T09:31:50;14.30;36.10
10300;DHT22;5195;48.562;9.192;2023-02-21T09:34:16;14.70;35.80
10300;DHT22;5195;48.562;9.192;2023-02-21T09:36:42;15.00;35.10
10300;DHT22;5195;48.562;9.192;2023-02-21T09:39:09;15.10;35.30
10300;DHT22;5195;48.562;9.192;2023-02-21T09:41:35;15.10;35.20
10300;DHT22;5195;48.562;9.192;2023-02-21T09:44:00;15.10;35.80
10300;DHT22;5195;48.562;9.192;2023-02-21T09:49:22;15.30;36.30
10300;DHT22;5195;48.562;9.192;2023-02-21T09:51:41;15.40;35.40
10300;DHT22;5195;48.562;9.192;2023-02-21T09:54:11;15.50;35.80
10300;DHT22;5195;48.562;9.192;2023-02-21T09:56:34;15.40;36.20
10300;DHT22;5195;48.562;9.192;2023-02-21T09:58:59;15.70;35.00
10300;DHT22;5195;48.562;9.192;2023-02-21T10:04:32;15.80;34.70
10300;DHT22;5195;48.562;9.192;2023-02-21T10:06:41;15.60;35.00
10300;DHT22;5195;48.562;9.192;2023-02-21T10:09:20;15.70;34.20
10300;DHT22;5195;48.562;9.192;2023-02-21T10:11:52;15.80;34.80
10300;DHT22;5195;48.562;9.192;2023-02-21T10:14:22;15.80;35.20
10300;DHT22;5195;48.562;9.192;2023-02-21T10:16:52;15.70;35.30
10300;DHT22;5195;48.562;9.192;2023-02-21T10:19:34;15.90;33.70
10300;DHT22;5195;48.562;9.192;2023-02-21T10:22:00;16.40;32.90
10300;DHT22;5195;48.562;9.192;2023-02-21T10:24:26;16.50;33.40
10300;DHT22;5195;48.562;9.192;2023-02-21T10:27:02;16.40;33.90
10300;DHT22;5195;48.562;9.192;2023-02-21T10:29:32;16.30;34.40
10300;DHT22;5195;48.562;9.192;2023-02-21T10:31:54;17.00;34.00
10300;DHT22;5195;48.562;9.192;2023-02-21T10:34:22;16.90;33.20
10300;DHT22;5195;48.562;9.192;2023-02-21T10:36:47;17.30;32.80
10300;DHT22;5195;48.562;9.192;2023-02-21T10:39:15;17.60;31.60
10300;DHT22;5195;48.562;9.192;2023-02-21T10:41:39;17.80;30.90
10300;DHT22;5195;48.562;9.192;2023-02-21T10:44:21;18.00;31.30
10300;DHT22;5195;48.562;9.192;2023-02-21T10:46:51;18.20;31.00
10300;DHT22;5195;48.562;9.192;2023-02-21T10:49:20;18.40;31.20
10300;DHT22;5195;48.562;9.192;2023-02-21T10:51:43;18.30;31.60
10300;DHT22;5195;48.562;9.192;2023-02-21T10:54:23;18.10;32.20
10300;DHT22;5195;48.562;9.192;2023-02-21T10:56:48;18.10;31.70
10300;DHT22;5195;48.562;9.192;2023-02-21T11:01:52;18.70;29.90
10300;DHT22;5195;48.562;9.192;2023-02-21T11:06:45;18.80;30.70
10300;DHT22;5195;48.562;9.192;2023-02-21T11:11:59;18.50;31.50
10300;DHT22;5195;48.562;9.192;2023-02-21T11:14:25;18.30;31.70
10300;DHT22;5195;48.562;9.192;2023-02-21T11:17:10;18.20;32.00
10300;DHT22;5195;48.562;9.192;2023-02-21T11:19:28;18.20;32.30
10300;DHT22;5195;48.562;9.192;2023-02-21T11:21:55;18.40;29.90
10300;DHT22;5195;48.562;9.192;2023-02-21T11:24:20;18.60;30.20
10300;DHT22;5195;48.562;9.192;2023-02-21T11:26:46;18.50;30.70
10300;DHT22;5195;48.562;9.192;2023-02-21T11:29:12;18.70;30.60
10300;DHT22;5195;48.562;9.192;2023-02-21T11:31:37;19.00;29.00
10300;DHT22;5195;48.562;9.192;2023-02-21T11:34:03;19.00;28.90
10300;DHT22;5195;48.562;9.192;2023-02-21T11:36:32;19.10;28.80
10300;DHT22;5195;48.562;9.192;2023-02-21T11:39:05;19.40;28.70
10300;DHT22;5195;48.562;9.192;2023-02-21T11:41:27;19.60;29.00
10300;DHT22;5195;48.562;9.192;2023-02-21T11:43:52;19.80;29.10
10300;DHT22;5195;48.562;9.192;2023-02-21T11:46:23;19.70;29.10
10300;DHT22;5195;48.562;9.192;2023-02-21T11:49:17;19.60;27.20
10300;DHT22;5195;48.562;9.192;2023-02-21T11:52:04;19.50;27.90
10300;DHT22;5195;48.562;9.192;2023-02-21T11:54:27;19.20;28.40
10300;DHT22;5195;48.562;9.192;2023-02-21T12:05:33;19.30;27.60
10300;DHT22;5195;48.562;9.192;2023-02-21T12:08:09;19.60;27.10
10300;DHT22;5195;48.562;9.192;2023-02-21T12:13:48;19.20;27.60
10300;DHT22;5195;48.562;9.192;2023-02-21T12:21:34;19.60;26.10
10300;DHT22;5195;48.562;9.192;2023-02-21T12:48:26;19.00;27.30
10300;DHT22;5195;48.562;9.192;2023-02-21T12:50:53;18.80;27.30
10300;DHT22;5195;48.562;9.192;2023-02-21T12:55:59;18.90;27.60
10300;DHT22;5195;48.562;9.192;2023-02-21T12:58:25;19.20;26.90
10300;DHT22;5195;48.562;9.192;2023-02-21T13:00:50;19.50;27.30
10300;DHT22;5195;48.562;9.192;2023-02-21T13:09:16;19.50;27.70
10300;DHT22;5195;48.562;9.192;2023-02-21T13:11:46;19.20;27.80
10300;DHT22;5195;48.562;9.192;2023-02-21T13:14:10;18.90;28.80
10300;DHT22;5195;48.562;9.192;2023-02-21T13:16:34;18.90;28.60
10300;DHT22;5195;48.562;9.192;2023-02-21T13:19:01;18.80;28.50
10300;DHT22;5195;48.562;9.192;2023-02-21T13:29:36;19.50;28.20
10300;DHT22;5195;48.562;9.192;2023-02-21T13:32:05;19.80;27.70
10300;DHT22;5195;48.562;9.192;2023-02-21T13:34:35;19.90;27.90
10300;DHT22;5195;48.562;9.192;2023-02-21T13:37:09;19.90;27.80
10300;DHT22;5195;48.562;9.192;2023-02-21T13:39:32;19.60;27.90
10300;DHT22;5195;48.562;9.192;2023-02-21T13:42:08;19.80;27.70
10300;DHT22;5195;48.562;9.192;2023-02-21T13:44:38;19.80;27.70
10300;DHT22;5195;48.562;9.192;2023-02-21T13:47:07;20.00;27.60
10300;DHT22;5195;48.562;9.192;2023-02-21T13:53:25;20.30;28.00
10300;DHT22;5195;48.562;9.192;2023-02-21T13:58:37;20.10;27.90
10300;DHT22;5195;48.562;9.192;2023-02-21T14:03:50;20.20;27.50
10300;DHT22;5195;48.562;9.192;2023-02-21T14:06:38;20.30;27.60
10300;DHT22;5195;48.562;9.192;2023-02-21T14:15:59;19.80;28.10
10300;DHT22;5195;48.562;9.192;2023-02-21T14:18:25;19.80;28.30
10300;DHT22;5195;48.562;9.192;2023-02-21T14:20:51;19.70;28.30
10300;DHT22;5195;48.562;9.192;2023-02-21T14:23:16;19.70;28.30
10300;DHT22;5195;48.562;9.192;2023-02-21T14:25:42;19.90;28.40
10300;DHT22;5195;48.562;9.192;2023-02-21T14:31:03;19.90;28.10
10300;DHT22;5195;48.562;9.192;2023-02-21T14:33:30;19.80;28.20
10300;DHT22;5195;48.562;9.192;2023-02-21T14:36:06;19.70;28.40
10300;DHT22;5195;48.562;9.192;2023-02-21T14:38:28;19.70;28.70
10300;DHT22;5195;48.562;9.192;2023-02-21T14:41:14;19.80;28.30
10300;DHT22;5195;48.562;9.192;2023-02-21T14:43:39;20.00;28.30
10300;DHT22;5195;48.562;9.192;2023-02-21T14:49:18;19.60;28.70
10300;DHT22;5195;48.562;9.192;2023-02-21T15:02:35;19.90;28.70
10300;DHT22;5195;48.562;9.192;2023-02-21T15:05:03;19.90;28.90
10300;DHT22;5195;48.562;9.192;2023-02-21T15:07:32;20.00;28.50
10300;DHT22;5195;48.562;9.192;2023-02-21T15:10:03;19.80;29.00
10300;DHT22;5195;48.562;9.192;2023-02-21T15:12:28;19.40;28.80
10300;DHT22;5195;48.562;9.192;2023-02-21T15:14:54;19.60;29.10
10300;DHT22;5195;48.562;9.192;2023-02-21T15:17:23;19.50;28.70
10300;DHT22;5195;48.562;9.192;2023-02-21T15:19:54;19.40;28.80
10300;DHT22;5195;48.562;9.192;2023-02-21T15:22:17;19.10;29.10
10300;DHT22;5195;48.562;9.192;2023-02-21T15:24:56;19.10;29.30
10300;DHT22;5195;48.562;9.192;2023-02-21T15:27:09;18.80;29.30
10300;DHT22;5195;48.562;9.192;2023-02-21T15:29:33;18.80;29.40
10300;DHT22;5195;48.562;9.192;2023-02-21T15:31:59;18.80;29.30
10300;DHT22;5195;48.562;9.192;2023-02-21T15:34:29;18.80;29.30
10300;DHT22;5195;48.562;9.192;2023-02-21T15:36:57;18.60;29.50
10300;DHT22;5195;48.562;9.192;2023-02-21T15:39:25;18.30;29.60
10300;DHT22;5195;48.562;9.192;2023-02-21T15:41:49;18.20;29.80
10300;DHT22;5195;48.562;9.192;2023-02-21T15:44:31;18.30;30.00
10300;DHT22;5195;48.562;9.192;2023-02-21T15:47:07;18.20;30.00
10300;DHT22;5195;48.562;9.192;2023-02-21T15:49:36;18.20;30.00
10300;DHT22;5195;48.562;9.192;2023-02-21T15:52:00;18.00;30.00
10300;DHT22;5195;48.562;9.192;2023-02-21T15:54:28;18.00;30.60
10300;DHT22;5195;48.562;9.192;2023-02-21T15:59:37;18.00;30.40
10300;DHT22;5195;48.562;9.192;2023-02-21T16:02:20;18.20;30.70
10300;DHT22;5195;48.562;9.192;2023-02-21T16:04:43;18.20;30.50
10300;DHT22;5195;48.562;9.192;2023-02-21T16:07:35;18.10;31.20
10300;DHT22;5195;48.562;9.192;2023-02-21T16:09:45;17.90;31.40
10300;DHT22;5195;48.562;9.192;2023-02-21T16:14:43;17.60;30.80
10300;DHT22;5195;48.562;9.192;2023-02-21T16:17:31;17.30;30.90
10300;DHT22;5195;48.562;9.192;2023-02-21T16:20:00;17.50;30.90
10300;DHT22;5195;48.562;9.192;2023-02-21T16:22:32;17.40;31.00
10300;DHT22;5195;48.562;9.192;2023-02-21T16:25:18;17.50;31.10
10300;DHT22;5195;48.562;9.192;2023-02-21T16:27:32;17.80;31.10
10300;DHT22;5195;48.562;9.192;2023-02-21T16:29:58;17.80;30.60
10300;DHT22;5195;48.562;9.192;2023-02-21T16:32:24;17.80;30.60
10300;DHT22;5195;48.562;9.192;2023-02-21T16:34:50;17.40;30.80
10300;DHT22;5195;48.562;9.192;2023-02-21T16:37:15;17.10;31.20
10300;DHT22;5195;48.562;9.192;2023-02-21T16:39:42;17.00;32.00
10300;DHT22;5195;48.562;9.192;2023-02-21T16:42:07;17.00;32.00
10300;DHT22;5195;48.562;9.192;2023-02-21T16:44:33;16.80;32.20
10300;DHT22;5195;48.562;9.192;2023-02-21T16:47:14;16.80;31.80
10300;DHT22;5195;48.562;9.192;2023-02-21T16:49:39;16.80;31.80
10300;DHT22;5195;48.562;9.192;2023-02-21T16:52:04;16.50;31.80
10300;DHT22;5195;48.562;9.192;2023-02-21T16:54:30;16.60;32.30
10300;DHT22;5195;48.562;9.192;2023-02-21T16:56:55;16.60;32.20
10300;DHT22;5195;48.562;9.192;2023-02-21T16:59:22;16.50;32.10
10300;DHT22;5195;48.562;9.192;2023-02-21T17:01:47;16.50;32.10
10300;DHT22;5195;48.562;9.192;2023-02-21T17:04:17;16.30;32.30
10300;DHT22;5195;48.562;9.192;2023-02-21T17:06:38;16.40;32.80
10300;DHT22;5195;48.562;9.192;2023-02-21T17:09:04;16.30;32.50
10300;DHT22;5195;48.562;9.192;2023-02-21T17:11:30;16.40;32.80
10300;DHT22;5195;48.562;9.192;2023-02-21T17:13:55;16.30;32.60
10300;DHT22;5195;48.562;9.192;2023-02-21T17:16:21;16.00;32.70
10300;DHT22;5195;48.562;9.192;2023-02-21T17:18:46;16.10;33.10
10300;DHT22;5195;48.562;9.192;2023-02-21T17:21:12;16.30;32.80
10300;DHT22;5195;48.562;9.192;2023-02-21T17:23:38;16.20;33.30
10300;DHT22;5195;48.562;9.192;2023-02-21T17:26:04;16.20;33.00
10300;DHT22;5195;48.562;9.192;2023-02-21T17:28:30;15.70;33.70
10300;DHT22;5195;48.562;9.192;2023-02-21T17:30:55;15.70;33.00
10300;DHT22;5195;48.562;9.192;2023-02-21T17:33:21;15.80;33.70
10300;DHT22;5195;48.562;9.192;2023-02-21T17:35:47;15.70;33.50
10300;DHT22;5195;48.562;9.192;2023-02-21T17:38:12;15.70;33.90
10300;DHT22;5195;48.562;9.192;2023-02-21T17:40:39;16.00;33.80
10300;DHT22;5195;48.562;9.192;2023-02-21T17:43:05;16.20;33.70
10300;DHT22;5195;48.562;9.192;2023-02-21T17:45:30;15.90;33.40
10300;DHT22;5195;48.562;9.192;2023-02-21T17:47:55;15.50;33.60
10300;DHT22;5195;48.562;9.192;2023-02-21T17:50:21;15.60;34.50
10300;DHT22;5195;48.562;9.192;2023-02-21T17:52:47;15.70;34.40
10300;DHT22;5195;48.562;9.192;2023-02-21T17:55:18;15.50;34.20
10300;DHT22;5195;48.562;9.192;2023-02-21T17:57:42;15.50;35.00
10300;DHT22;5195;48.562;9.192;2023-02-21T18:00:09;15.70;35.00
10300;DHT22;5195;48.562;9.192;2023-02-21T18:02:35;15.50;34.80
10300;DHT22;5195;48.562;9.192;2023-02-21T18:05:00;15.50;34.80
10300;DHT22;5195;48.562;9.192;2023-02-21T18:07:25;15.40;35.60
10300;DHT22;5195;48.562;9.192;2023-02-21T18:09:51;15.50;36.00
10300;DHT22;5195;48.562;9.192;2023-02-21T18:12:17;15.60;35.40
10300;DHT22;5195;48.562;9.192;2023-02-21T18:14:43;15.60;35.30
10300;DHT22;5195;48.562;9.192;2023-02-21T18:17:08;15.60;35.10
10300;DHT22;5195;48.562;9.192;2023-02-21T18:19:34;15.60;35.00
10300;DHT22;5195;48.562;9.192;2023-02-21T18:22:01;15.30;35.00
10300;DHT22;5195;48.562;9.192;2023-02-21T18:24:26;15.20;35.80
10300;DHT22;5195;48.562;9.192;2023-02-21T18:26:52;14.90;35.80
10300;DHT22;5195;48.562;9.192;2023-02-21T18:29:17;14.90;36.40